KCRW/CRW METAR and TAF weather

Enter ICAO airport designator
Station Type Date Time Source
KCRW METAR 2019/08/19 06:54 UTC NOAA

KCRW 190654Z 15004KT 10SM CLR 21/20 A3000 RMK AO2 SLP146 T02110200


Station Type Date Time Source
KCRW Decoded METAR 2019/08/19 06:54 UTC NOAA

Station name not available
Aug 19, 2019 - 02:54 AM EDT / 2019.08.19 0654 UTC
Wind: from the SSE (150 degrees) at 5 MPH (4 KT):0
Visibility: 10 mile(s):0
Sky conditions: clear
Temperature: 70.0 F (21.1 C)
Dew Point: 68.0 F (20.0 C)
Relative Humidity: 93%
Pressure (altimeter): 30 in. Hg (1015 hPa)
ob: KCRW 190654Z 15004KT 10SM CLR 21/20 A3000 RMK AO2 SLP146 T02110200
cycle: 7

Station Type Date Time Source
KCRW TAF 2019/08/19 06:28 UTC NOAA

TAF KCRW 190526Z 1906/2006 00000KT P6SM FEW250
FM190800 00000KT 6SM BR FEW250
FM191100 00000KT 5SM BR SCT150
FM191300 21004KT P6SM SCT150

Example: see airport list